Time;durP1;ratioP1;P1;durP2;ratioP2;P2;SDS_P1;SDS_P2;PMS_P1;PMS_P2;Temp;Humidity;BMP_temperature;BMP_pressure;BME280_temperature;BME280_humidity;BME280_pressure;Samples;Min_cycle;Max_cycle;Signal;HPM_P1;HPM_P2
2021/09/10 00:00:28;;;;;;;4.97;4.15;;;;;;;20.66;58.31;96590.50;5007981;28;20534;-62
2021/09/10 00:02:53;;;;;;;6.15;4.68;;;;;;;20.63;58.31;96594.50;4995487;28;20619;-61
2021/09/10 00:05:19;;;;;;;5.00;4.13;;;;;;;20.39;59.26;96588.59;5007020;28;20294;-61
2021/09/10 00:07:44;;;;;;;6.80;4.35;;;;;;;20.32;59.43;96596.16;5001879;28;20175;-61
2021/09/10 00:10:10;;;;;;;7.05;4.68;;;;;;;20.28;59.67;96589.81;5000655;28;20626;-61
2021/09/10 00:12:36;;;;;;;4.32;3.92;;;;;;;20.21;59.93;96595.53;4994174;28;20715;-61
2021/09/10 00:15:02;;;;;;;4.57;4.00;;;;;;;20.26;59.83;96591.97;5008135;28;20184;-61
2021/09/10 00:17:28;;;;;;;4.78;4.25;;;;;;;20.30;59.68;96596.41;4999556;28;20191;-61
2021/09/10 00:19:53;;;;;;;5.57;4.72;;;;;;;20.26;60.03;96598.09;5003020;28;20265;-61
2021/09/10 00:22:19;;;;;;;6.05;4.60;;;;;;;20.30;59.94;96599.09;5005670;28;20214;-62
2021/09/10 00:24:44;;;;;;;5.85;4.80;;;;;;;20.41;59.89;96598.94;4996239;28;20198;-62
2021/09/10 00:27:10;;;;;;;5.47;4.63;;;;;;;20.42;60.19;96592.53;5008804;28;20554;-62
2021/09/10 00:29:36;;;;;;;5.25;4.63;;;;;;;20.32;60.58;96596.97;5000470;28;20207;-61
2021/09/10 00:32:01;;;;;;;5.88;4.90;;;;;;;20.38;60.42;96602.19;5002330;28;20196;-61
2021/09/10 00:34:26;;;;;;;5.43;4.50;;;;;;;20.25;60.83;96595.72;4998936;28;20203;-62
2021/09/10 00:36:52;;;;;;;4.70;4.20;;;;;;;20.32;61.02;96588.19;5009786;28;20189;-61
2021/09/10 00:39:21;;;;;;;8.43;4.90;;;;;;;20.28;61.01;96587.16;4998908;28;20273;-61
2021/09/10 00:41:47;;;;;;;5.95;4.95;;;;;;;20.36;60.92;96593.69;5004592;28;20238;-61
2021/09/10 00:44:13;;;;;;;5.25;4.35;;;;;;;20.47;60.75;96584.44;5006440;28;20195;-64
2021/09/10 00:46:38;;;;;;;5.70;4.35;;;;;;;20.53;60.46;96588.59;4995882;28;20279;-62
2021/09/10 00:49:04;;;;;;;6.60;4.75;;;;;;;20.43;60.63;96586.91;5007797;28;20188;-61
2021/09/10 00:51:30;;;;;;;5.43;4.63;;;;;;;20.50;60.63;96594.53;4997141;28;20179;-61
2021/09/10 00:53:55;;;;;;;5.45;4.30;;;;;;;20.54;60.77;96596.28;4998462;28;20188;-61
2021/09/10 00:56:22;;;;;;;5.32;4.82;;;;;;;20.46;60.87;96599.63;4993592;28;20657;-61
2021/09/10 00:58:48;;;;;;;5.88;4.53;;;;;;;20.57;60.46;96594.91;5008769;28;20188;-63
2021/09/10 01:01:13;;;;;;;5.80;4.22;;;;;;;20.46;60.98;96590.84;4999879;28;20195;-61
2021/09/10 01:03:39;;;;;;;5.75;5.10;;;;;;;20.46;60.88;96598.84;5004670;28;20206;-61
2021/09/10 01:06:04;;;;;;;6.30;4.55;;;;;;;20.60;60.43;96589.78;4998606;28;20238;-61
2021/09/10 01:08:31;;;;;;;6.55;4.78;;;;;;;20.43;60.81;96592.25;4997093;28;20262;-62
2021/09/10 01:10:59;;;;;;;6.43;4.45;;;;;;;20.50;60.62;96589.19;5014584;28;20306;-61
2021/09/10 01:13:26;;;;;;;5.55;4.90;;;;;;;20.45;60.69;96591.94;5008113;28;20271;-62
2021/09/10 01:15:52;;;;;;;6.05;5.13;;;;;;;20.44;60.60;96590.38;4995640;28;20611;-61
2021/09/10 01:18:18;;;;;;;5.88;5.28;;;;;;;20.30;61.09;96587.63;4997116;28;20629;-61
2021/09/10 01:20:46;;;;;;;5.70;4.40;;;;;;;20.45;60.38;96584.72;5012376;28;20282;-61
2021/09/10 01:23:11;;;;;;;7.38;4.97;;;;;;;20.32;61.47;96585.50;5005204;28;20551;-61
2021/09/10 01:25:37;;;;;;;5.25;4.75;;;;;;;20.40;61.15;96586.69;5005184;28;20672;-62
2021/09/10 01:28:02;;;;;;;5.65;4.82;;;;;;;20.26;61.71;96589.31;5006229;28;20179;-61
2021/09/10 01:30:31;;;;;;;6.95;5.13;;;;;;;20.27;61.72;96583.72;5003441;28;20241;-62
2021/09/10 01:32:59;;;;;;;5.55;4.90;;;;;;;20.32;61.59;96583.66;4996512;28;20188;-61
2021/09/10 01:35:24;;;;;;;6.70;5.13;;;;;;;20.12;62.24;96581.28;4997792;28;20640;-61
2021/09/10 01:37:50;;;;;;;6.28;4.63;;;;;;;20.25;61.86;96593.06;5003215;28;20322;-61
2021/09/10 01:40:15;;;;;;;6.47;5.15;;;;;;;20.26;61.94;96590.09;5005363;28;20231;-62
2021/09/10 01:42:41;;;;;;;7.18;5.20;;;;;;;20.25;62.04;96593.84;5002359;28;20282;-62
2021/09/10 01:45:09;;;;;;;5.60;4.28;;;;;;;20.13;62.42;96585.53;5014301;28;20535;-61
2021/09/10 01:47:35;;;;;;;8.48;5.35;;;;;;;20.13;62.54;96582.06;5008519;28;20207;-62
2021/09/10 01:50:07;;;;;;;7.00;5.60;;;;;;;20.18;62.44;96584.66;5004545;28;20207;-61
2021/09/10 01:52:32;;;;;;;5.32;4.82;;;;;;;20.30;61.98;96588.44;5007941;28;20632;-61
2021/09/10 01:54:58;;;;;;;5.90;5.30;;;;;;;20.20;62.22;96583.28;4997433;28;20285;-61
2021/09/10 01:57:23;;;;;;;5.97;5.13;;;;;;;20.13;62.45;96582.88;5007952;28;20545;-61
2021/09/10 01:59:48;;;;;;;6.78;4.60;;;;;;;20.21;62.37;96581.41;5003072;28;20192;-62
2021/09/10 02:02:14;;;;;;;5.45;4.90;;;;;;;20.19;62.29;96584.38;5007826;28;20196;-64
2021/09/10 02:04:39;;;;;;;5.93;5.22;;;;;;;20.09;62.91;96587.22;4996601;28;20191;-61
2021/09/10 02:07:05;;;;;;;7.28;4.88;;;;;;;20.27;62.19;96588.25;4996491;28;20200;-61
2021/09/10 02:09:32;;;;;;;6.32;4.95;;;;;;;20.13;62.55;96577.53;5007225;28;20269;-61
2021/09/10 02:11:59;;;;;;;5.45;4.95;;;;;;;20.12;62.73;96577.84;4999304;28;20199;-66
2021/09/10 02:14:24;;;;;;;6.55;5.03;;;;;;;20.14;62.63;96581.78;5006460;28;20211;-61
2021/09/10 02:16:50;;;;;;;6.15;5.55;;;;;;;20.12;62.73;96580.50;4999452;28;20215;-61
2021/09/10 02:19:15;;;;;;;5.20;4.70;;;;;;;20.14;62.55;96579.13;5007344;28;20184;-61
2021/09/10 02:21:40;;;;;;;5.88;4.90;;;;;;;20.08;62.78;96584.81;5008643;28;20718;-61
2021/09/10 02:24:06;;;;;;;6.47;5.10;;;;;;;20.08;62.98;96588.28;5000255;28;20187;-61
2021/09/10 02:26:31;;;;;;;5.78;4.82;;;;;;;20.05;63.41;96588.88;5003597;28;20544;-62
2021/09/10 02:28:57;;;;;;;6.18;5.00;;;;;;;19.77;64.17;96584.53;5011589;28;20194;-63
2021/09/10 02:31:22;;;;;;;7.75;4.90;;;;;;;19.77;64.55;96585.34;5002288;28;20553;-62
2021/09/10 02:33:48;;;;;;;5.97;5.15;;;;;;;19.92;64.05;96585.09;5003645;28;20250;-61
2021/09/10 02:36:13;;;;;;;5.65;5.03;;;;;;;19.81;64.12;96588.19;5009134;28;20187;-61
2021/09/10 02:38:39;;;;;;;7.72;5.55;;;;;;;19.82;64.23;96587.91;4998202;28;20224;-62
2021/09/10 02:41:04;;;;;;;6.40;5.30;;;;;;;19.93;64.09;96589.34;5004571;28;20614;-62
2021/09/10 02:43:30;;;;;;;5.90;5.10;;;;;;;19.85;64.59;96591.84;5005851;28;20188;-61
2021/09/10 02:45:55;;;;;;;6.80;5.80;;;;;;;19.84;64.81;96588.41;5005155;28;20262;-62
2021/09/10 02:48:20;;;;;;;6.03;5.43;;;;;;;19.86;64.86;96588.09;4999587;28;20192;-61
2021/09/10 02:50:46;;;;;;;5.90;5.28;;;;;;;19.67;65.86;96603.31;5003079;28;20221;-61
2021/09/10 02:53:11;;;;;;;8.48;6.18;;;;;;;19.73;66.23;96592.28;4997738;28;20183;-61
2021/09/10 02:55:36;;;;;;;7.65;6.18;;;;;;;19.71;66.75;96599.78;4998541;28;20548;-61
2021/09/10 02:58:02;;;;;;;7.45;6.10;;;;;;;19.73;66.71;96594.94;4999525;28;20189;-61
2021/09/10 03:00:27;;;;;;;7.35;6.22;;;;;;;19.73;66.75;96591.50;4998327;28;20313;-62
2021/09/10 03:02:53;;;;;;;7.90;5.50;;;;;;;19.74;66.64;96583.22;5009282;28;20241;-62
2021/09/10 03:05:18;;;;;;;7.82;6.47;;;;;;;19.76;66.33;96582.97;5011165;28;20188;-61
2021/09/10 03:07:43;;;;;;;5.90;5.30;;;;;;;19.70;66.63;96581.44;4994752;28;20276;-61
2021/09/10 03:10:10;;;;;;;7.20;5.72;;;;;;;19.86;66.08;96586.25;5004535;28;20203;-61
2021/09/10 03:12:37;;;;;;;7.78;6.32;;;;;;;19.93;65.62;96586.66;5002305;28;20664;-61
2021/09/10 03:15:09;;;;;;;7.68;5.75;;;;;;;19.95;65.52;96585.59;4994381;28;20287;-62
2021/09/10 03:17:34;;;;;;;7.90;5.53;;;;;;;20.13;64.83;96585.53;5012225;28;20521;-62
2021/09/10 03:19:59;;;;;;;7.38;5.63;;;;;;;19.95;65.18;96586.34;5005258;28;20294;-61
2021/09/10 03:22:25;;;;;;;6.72;5.72;;;;;;;19.92;65.47;96584.28;5004084;28;20241;-61
2021/09/10 03:24:50;;;;;;;7.32;5.82;;;;;;;20.00;65.58;96577.53;5012259;28;20188;-61
2021/09/10 03:27:16;;;;;;;8.52;6.50;;;;;;;20.10;65.95;96582.69;4997437;28;20198;-62
2021/09/10 03:29:41;;;;;;;6.63;5.93;;;;;;;19.99;66.46;96583.94;5009700;28;20302;-61
2021/09/10 03:32:07;;;;;;;8.13;6.30;;;;;;;20.02;66.18;96568.16;5000813;28;20187;-61
2021/09/10 03:34:32;;;;;;;7.20;6.35;;;;;;;19.92;66.46;96584.28;5003059;28;20186;-61
2021/09/10 03:36:58;;;;;;;9.13;6.75;;;;;;;20.03;66.05;96575.06;5007882;28;20616;-61
2021/09/10 03:39:23;;;;;;;8.90;6.35;;;;;;;20.00;66.02;96565.00;4996707;28;20302;-61
2021/09/10 03:41:49;;;;;;;7.75;6.35;;;;;;;19.98;66.18;96567.16;5009031;28;20816;-62
2021/09/10 03:44:14;;;;;;;7.05;5.80;;;;;;;19.82;66.60;96565.84;4994144;28;20184;-62
2021/09/10 03:46:39;;;;;;;7.60;6.75;;;;;;;19.78;67.09;96560.28;5001164;28;20583;-61
2021/09/10 03:49:05;;;;;;;7.75;6.45;;;;;;;19.83;66.55;96559.44;4999020;28;20187;-61
2021/09/10 03:51:30;;;;;;;7.10;6.25;;;;;;;19.72;67.06;96558.03;5009566;28;20725;-61
2021/09/10 03:53:56;;;;;;;8.00;6.25;;;;;;;19.68;67.14;96563.13;4996408;28;20205;-61
2021/09/10 03:56:21;;;;;;;7.22;6.13;;;;;;;19.83;66.42;96562.91;5006014;28;20180;-61
2021/09/10 03:58:47;;;;;;;8.35;5.97;;;;;;;19.80;66.50;96563.47;5004515;28;20195;-61
2021/09/10 04:01:12;;;;;;;9.27;6.88;;;;;;;19.78;66.55;96560.28;4997243;28;20183;-61
2021/09/10 04:03:38;;;;;;;7.30;6.22;;;;;;;19.52;67.53;96561.78;5008578;28;20196;-61
2021/09/10 04:06:03;;;;;;;7.53;6.28;;;;;;;19.48;67.64;96552.81;4998071;28;20571;-61
2021/09/10 04:08:28;;;;;;;7.78;6.97;;;;;;;19.44;67.82;96563.19;5004007;28;20539;-61
2021/09/10 04:10:54;;;;;;;11.80;6.38;;;;;;;19.62;67.03;96552.84;5005935;28;20211;-61
2021/09/10 04:13:19;;;;;;;7.05;6.00;;;;;;;19.47;67.44;96557.31;4997120;28;20188;-62
2021/09/10 04:15:44;;;;;;;7.22;6.32;;;;;;;19.43;67.49;96558.16;5009121;28;20629;-61
2021/09/10 04:18:10;;;;;;;10.93;6.05;;;;;;;19.50;67.19;96558.63;4994098;28;20233;-61
2021/09/10 04:20:35;;;;;;;8.73;6.63;;;;;;;19.51;67.42;96557.53;5003067;28;20667;-61
2021/09/10 04:23:01;;;;;;;7.78;6.70;;;;;;;19.44;68.10;96563.19;5000207;28;20191;-62
2021/09/10 04:25:27;;;;;;;10.75;7.07;;;;;;;19.55;68.13;96555.09;4993391;28;20196;-61
2021/09/10 04:27:53;;;;;;;8.43;7.35;;;;;;;19.29;69.25;96563.41;4997338;28;20183;-61
2021/09/10 04:30:19;;;;;;;9.00;7.60;;;;;;;19.35;69.32;96562.25;5004670;28;20709;-62
2021/09/10 04:32:44;;;;;;;9.15;7.82;;;;;;;19.27;69.45;96560.25;5000753;28;20187;-61
2021/09/10 04:35:11;;;;;;;8.68;7.65;;;;;;;19.10;70.12;96559.94;4999529;28;20204;-61
2021/09/10 04:37:38;;;;;;;8.45;6.80;;;;;;;19.06;70.41;96566.88;4999078;28;20195;-61
2021/09/10 04:40:04;;;;;;;8.30;7.07;;;;;;;19.14;70.18;96565.47;5001346;28;20685;-61
2021/09/10 04:42:29;;;;;;;10.32;7.97;;;;;;;19.05;70.54;96574.09;5001660;28;20223;-61
2021/09/10 04:44:55;;;;;;;10.25;7.68;;;;;;;18.95;71.28;96570.75;5012708;28;20188;-62
2021/09/10 04:47:20;;;;;;;8.40;7.47;;;;;;;19.04;71.03;96574.38;5000942;28;20197;-60
2021/09/10 04:49:45;;;;;;;9.25;7.60;;;;;;;19.00;71.58;96574.13;5010182;28;20608;-61
2021/09/10 04:52:11;;;;;;;8.40;7.57;;;;;;;18.94;71.60;96572.66;5007525;28;20187;-60
2021/09/10 04:54:37;;;;;;;9.70;7.82;;;;;;;19.02;71.55;96574.66;5002377;28;20188;-60
2021/09/10 04:57:03;;;;;;;8.07;7.22;;;;;;;19.07;71.22;96579.91;5012867;28;20291;-60
2021/09/10 04:59:28;;;;;;;8.60;7.35;;;;;;;19.00;71.83;96571.47;4997428;28;20184;-60
2021/09/10 05:01:54;;;;;;;9.90;7.50;;;;;;;18.94;71.91;96577.97;5002503;28;20250;-61
2021/09/10 05:04:21;;;;;;;8.18;7.30;;;;;;;18.91;72.24;96578.50;5001716;28;20195;-61
2021/09/10 05:06:47;;;;;;;9.73;7.68;;;;;;;18.93;72.30;96578.22;5009338;28;20229;-60
2021/09/10 05:09:12;;;;;;;8.32;7.50;;;;;;;18.89;72.63;96580.66;5006333;28;20183;-61
2021/09/10 05:11:38;;;;;;;8.77;7.32;;;;;;;19.00;72.16;96582.09;5009069;28;20187;-60
2021/09/10 05:14:03;;;;;;;9.70;7.60;;;;;;;19.19;71.53;96576.81;5012759;28;20183;-60
2021/09/10 05:16:29;;;;;;;11.77;7.60;;;;;;;19.33;71.18;96580.38;5011282;28;20545;-62
2021/09/10 05:18:54;;;;;;;8.77;7.35;;;;;;;19.34;71.18;96576.63;5000766;28;20192;-61
2021/09/10 05:21:20;;;;;;;9.37;7.87;;;;;;;19.40;71.03;96583.44;4996983;28;20330;-61
2021/09/10 05:23:45;;;;;;;9.88;7.22;;;;;;;19.35;71.30;96575.53;5012860;28;20188;-60
2021/09/10 05:26:11;;;;;;;11.13;7.97;;;;;;;19.51;70.48;96578.78;4996596;28;20176;-60
2021/09/10 05:28:36;;;;;;;8.35;7.43;;;;;;;19.67;69.79;96574.81;5005144;28;20187;-60
2021/09/10 05:31:01;;;;;;;10.18;7.28;;;;;;;19.83;68.82;96584.19;5001813;28;20677;-60
2021/09/10 05:33:27;;;;;;;8.43;6.45;;;;;;;19.80;69.08;96582.09;5011585;28;20244;-60
2021/09/10 05:35:52;;;;;;;8.40;7.45;;;;;;;19.94;68.57;96584.81;5000089;28;20179;-60
2021/09/10 05:38:18;;;;;;;8.75;7.45;;;;;;;19.99;68.64;96592.69;5008050;28;20260;-61
2021/09/10 05:40:43;;;;;;;8.63;7.38;;;;;;;20.05;68.13;96593.41;5006100;28;20350;-60
2021/09/10 05:43:08;;;;;;;8.65;6.90;;;;;;;20.11;68.00;96586.91;5001146;28;20198;-61
2021/09/10 05:45:34;;;;;;;9.15;6.35;;;;;;;20.30;67.30;96590.31;5010284;28;20195;-60
2021/09/10 05:47:59;;;;;;;7.28;6.20;;;;;;;20.28;67.05;96587.94;4998792;28;20183;-60
2021/09/10 05:50:25;;;;;;;7.68;6.88;;;;;;;20.36;66.27;96585.72;4983974;28;20248;-61
2021/09/10 05:52:50;;;;;;;7.82;6.63;;;;;;;20.46;65.86;96582.84;5001903;28;20184;-60
2021/09/10 05:55:15;;;;;;;8.75;6.45;;;;;;;20.66;65.35;96582.50;5001653;28;20692;-60
2021/09/10 05:57:41;;;;;;;7.00;6.10;;;;;;;20.75;64.94;96594.03;5009809;28;20215;-61
2021/09/10 06:00:07;;;;;;;6.88;6.20;;;;;;;20.90;64.56;96592.97;5004741;28;20238;-61
2021/09/10 06:02:32;;;;;;;8.82;6.45;;;;;;;20.99;64.23;96594.63;5008963;28;20183;-60
2021/09/10 06:05:19;;;;;;;8.32;6.93;;;;;;;20.98;64.52;96589.59;5007681;28;20187;-60
2021/09/10 06:07:44;;;;;;;7.47;6.70;;;;;;;21.13;64.13;96597.25;4999892;28;20192;-60
2021/09/10 06:10:12;;;;;;;10.38;6.45;;;;;;;21.26;64.17;96587.72;5004359;28;20209;-63
2021/09/10 06:12:38;;;;;;;9.55;6.88;;;;;;;21.37;63.76;96589.06;5003519;28;20219;-60
2021/09/10 06:15:03;;;;;;;8.85;7.43;;;;;;;21.52;63.11;96594.06;5001262;28;20656;-61
2021/09/10 06:17:29;;;;;;;8.63;6.75;;;;;;;21.51;63.07;96601.25;4998733;28;20295;-60
2021/09/10 06:19:54;;;;;;;8.88;6.78;;;;;;;21.63;62.89;96597.28;5005051;28;20275;-60
2021/09/10 06:22:19;;;;;;;9.45;6.65;;;;;;;21.74;62.05;96601.28;5010705;28;20533;-60
2021/09/10 06:24:45;;;;;;;7.07;5.90;;;;;;;21.80;61.61;96608.88;5003317;28;20208;-60
2021/09/10 06:27:10;;;;;;;6.90;5.50;;;;;;;21.67;62.29;96609.75;5002818;28;20188;-61
2021/09/10 06:29:36;;;;;;;7.13;5.93;;;;;;;21.79;62.01;96609.97;5004458;28;20265;-62
2021/09/10 06:32:01;;;;;;;7.30;6.53;;;;;;;21.92;61.29;96605.69;5008151;28;20195;-62
2021/09/10 06:34:26;;;;;;;9.57;6.70;;;;;;;22.03;61.06;96606.25;4994535;28;20194;-62
2021/09/10 06:36:52;;;;;;;7.25;6.28;;;;;;;21.94;61.67;96614.19;5000516;28;20184;-62
2021/09/10 06:39:18;;;;;;;8.07;6.43;;;;;;;21.65;62.44;96606.56;5000765;28;20703;-62
2021/09/10 06:41:44;;;;;;;7.60;6.88;;;;;;;21.64;62.55;96610.31;5001111;28;20191;-62
2021/09/10 06:44:10;;;;;;;7.72;6.50;;;;;;;21.61;62.68;96618.16;5005939;28;20632;-64
2021/09/10 06:46:36;;;;;;;7.18;6.05;;;;;;;21.83;62.40;96610.97;5003707;28;20183;-62
2021/09/10 06:49:02;;;;;;;9.25;6.28;;;;;;;22.02;61.45;96615.34;4996786;28;20652;-62
2021/09/10 06:51:28;;;;;;;10.38;5.68;;;;;;;22.16;60.68;96613.41;5006838;28;20575;-62
2021/09/10 06:53:53;;;;;;;9.15;6.07;;;;;;;22.40;59.79;96614.66;4999151;28;20187;-62
2021/09/10 06:56:18;;;;;;;6.70;5.82;;;;;;;22.59;59.30;96619.78;5009810;28;20191;-62
2021/09/10 06:58:44;;;;;;;8.68;5.72;;;;;;;22.59;59.14;96621.66;5003414;28;20188;-62
2021/09/10 07:01:11;;;;;;;7.38;6.18;;;;;;;22.74;57.91;96624.75;4996368;28;20262;-62
2021/09/10 07:03:36;;;;;;;6.50;5.85;;;;;;;23.00;57.79;96624.88;5003740;28;20275;-62
2021/09/10 07:06:01;;;;;;;7.80;5.70;;;;;;;23.22;57.30;96621.31;5004632;28;20270;-63
2021/09/10 07:08:28;;;;;;;6.93;6.20;;;;;;;23.31;57.44;96623.97;5001048;28;20233;-62
2021/09/10 07:10:54;;;;;;;7.32;5.93;;;;;;;23.50;56.68;96629.88;5008385;28;20220;-62
2021/09/10 07:13:20;;;;;;;6.82;6.13;;;;;;;23.46;56.58;96623.59;4998377;28;20184;-63
2021/09/10 07:15:45;;;;;;;6.82;5.53;;;;;;;23.44;56.79;96629.22;5004655;28;20270;-62
2021/09/10 07:18:11;;;;;;;7.82;6.30;;;;;;;23.54;56.38;96622.78;4999704;28;20279;-62
2021/09/10 07:20:36;;;;;;;10.38;5.90;;;;;;;23.44;56.64;96628.41;5000004;28;20191;-63
2021/09/10 07:23:02;;;;;;;7.00;5.65;;;;;;;23.52;56.39;96625.78;5010454;28;20278;-62
2021/09/10 07:25:27;;;;;;;5.80;5.20;;;;;;;23.52;55.50;96628.44;5007958;28;20636;-62
2021/09/10 07:27:52;;;;;;;6.82;5.60;;;;;;;23.54;56.33;96625.47;5005157;28;20548;-62
2021/09/10 07:30:18;;;;;;;5.38;4.88;;;;;;;23.75;54.91;96628.31;4998276;28;20218;-62
2021/09/10 07:32:43;;;;;;;6.20;5.40;;;;;;;23.83;54.75;96636.38;5002856;28;20196;-62
2021/09/10 07:35:09;;;;;;;5.93;5.32;;;;;;;23.87;54.00;96637.28;5006784;28;20587;-62
2021/09/10 07:37:37;;;;;;;6.03;5.43;;;;;;;24.18;53.75;96642.53;5007000;28;20217;-63
2021/09/10 07:40:03;;;;;;;6.07;5.43;;;;;;;24.28;53.63;96630.69;5011180;28;20699;-62
2021/09/10 07:42:28;;;;;;;7.78;5.78;;;;;;;24.43;53.14;96633.66;5001560;28;20227;-62
2021/09/10 07:44:54;;;;;;;6.13;5.53;;;;;;;24.54;52.69;96633.28;5004922;28;20625;-62
2021/09/10 07:47:19;;;;;;;7.57;5.40;;;;;;;24.48;53.67;96638.03;4996258;28;20179;-65
2021/09/10 07:49:45;;;;;;;7.28;5.90;;;;;;;24.36;53.45;96646.72;5008887;28;20192;-62
2021/09/10 07:52:11;;;;;;;6.07;5.45;;;;;;;24.52;53.36;96640.88;5006725;28;20202;-62
2021/09/10 07:54:37;;;;;;;6.97;5.40;;;;;;;24.59;53.34;96641.94;5001237;28;20240;-64
2021/09/10 07:57:02;;;;;;;8.00;5.60;;;;;;;24.68;52.28;96641.94;4999049;28;20183;-62
2021/09/10 07:59:28;;;;;;;6.57;4.97;;;;;;;24.84;51.91;96651.03;5009059;28;20191;-62
2021/09/10 08:01:53;;;;;;;5.57;5.07;;;;;;;24.95;51.32;96651.50;4997808;28;20187;-62
2021/09/10 08:04:19;;;;;;;6.88;5.28;;;;;;;25.02;51.18;96649.88;5004258;28;20211;-62
2021/09/10 08:06:44;;;;;;;5.95;5.43;;;;;;;25.33;51.22;96657.63;5005146;28;20179;-62
2021/09/10 08:09:10;;;;;;;6.82;5.47;;;;;;;25.65;50.40;96656.19;4998585;28;20202;-62
2021/09/10 08:11:35;;;;;;;6.65;5.50;;;;;;;25.80;50.23;96658.28;4995574;28;20216;-62
2021/09/10 08:14:03;;;;;;;6.00;5.40;;;;;;;25.72;50.46;96659.13;4998635;28;20182;-62
2021/09/10 08:16:28;;;;;;;5.47;4.97;;;;;;;25.89;49.40;96661.69;4998742;28;20188;-62
2021/09/10 08:18:54;;;;;;;6.47;5.40;;;;;;;25.99;49.30;96661.31;4999478;28;20404;-62
2021/09/10 08:21:19;;;;;;;5.80;5.30;;;;;;;26.14;49.08;96661.81;4994257;28;20203;-62
2021/09/10 08:23:45;;;;;;;6.55;5.18;;;;;;;26.36;48.45;96669.56;5003375;28;20190;-62
2021/09/10 08:26:10;;;;;;;6.28;5.43;;;;;;;26.23;49.03;96670.63;4997554;28;20184;-62
2021/09/10 08:28:35;;;;;;;7.38;5.05;;;;;;;26.45;48.74;96662.97;4997683;28;20633;-63
2021/09/10 08:31:01;;;;;;;4.50;4.10;;;;;;;26.53;47.76;96669.38;5006071;28;20575;-64
2021/09/10 08:33:26;;;;;;;4.68;4.18;;;;;;;26.86;46.29;96672.81;5002894;28;20183;-62
2021/09/10 08:35:52;;;;;;;6.45;3.92;;;;;;;26.62;45.61;96678.16;5005568;28;20290;-62
2021/09/10 08:38:17;;;;;;;7.05;4.40;;;;;;;26.45;46.26;96673.72;5004873;28;20183;-62
2021/09/10 08:40:45;;;;;;;5.03;4.40;;;;;;;26.46;46.08;96675.31;5006099;28;20238;-63
2021/09/10 08:43:11;;;;;;;4.65;4.25;;;;;;;26.27;46.40;96683.06;5001344;28;20199;-62
2021/09/10 08:45:36;;;;;;;4.25;3.85;;;;;;;26.21;46.63;96687.03;4997385;28;20187;-62
2021/09/10 08:48:02;;;;;;;4.40;4.00;;;;;;;26.20;46.74;96688.16;5001949;28;20550;-64
2021/09/10 08:50:27;;;;;;;4.50;4.10;;;;;;;26.02;46.41;96692.91;5001888;28;20207;-62
2021/09/10 08:52:53;;;;;;;4.35;3.95;;;;;;;26.24;46.77;96691.00;5001025;28;20310;-62
2021/09/10 08:55:19;;;;;;;4.53;4.10;;;;;;;26.13;46.78;96692.50;5003738;28;20274;-62
2021/09/10 08:57:49;;;;;;;4.40;4.00;;;;;;;26.11;45.95;96692.03;5002292;28;20199;-62
2021/09/10 09:00:18;;;;;;;4.53;4.13;;;;;;;26.05;46.54;96691.44;4998021;28;20206;-62
2021/09/10 09:02:57;;;;;;;4.68;4.28;;;;;;;25.99;46.76;96695.44;5002371;28;20632;-62
2021/09/10 09:05:26;;;;;;;3.90;3.60;;;;;;;26.02;47.10;96694.78;4999553;28;20239;-62
2021/09/10 09:08:13;;;;;;;5.70;4.03;;;;;;;25.89;47.27;96693.16;4996766;28;20188;-62
2021/09/10 09:11:00;;;;;;;5.93;4.30;;;;;;;25.90;47.34;96694.72;5005911;28;20211;-62
2021/09/10 09:13:34;;;;;;;6.10;3.83;;;;;;;25.93;47.06;96686.00;5000159;28;20241;-62
2021/09/10 09:16:27;;;;;;;4.97;4.50;;;;;;;25.82;47.66;96684.81;4998884;28;20228;-62
2021/09/10 09:19:07;;;;;;;4.15;3.80;;;;;;;25.59;47.87;96685.13;5000206;28;20172;-60
2021/09/10 09:21:38;;;;;;;5.93;4.30;;;;;;;25.51;48.36;96685.16;4999950;28;20196;-63
2021/09/10 09:24:21;;;;;;;6.00;5.13;;;;;;;25.59;48.70;96681.66;5000955;28;20234;-61
2021/09/10 09:26:49;;;;;;;5.88;4.25;;;;;;;25.60;48.86;96684.00;4994717;28;20194;-62
2021/09/10 09:29:22;;;;;;;4.88;4.40;;;;;;;25.59;48.75;96693.16;5010811;28;20195;-61
2021/09/10 09:31:59;;;;;;;4.60;4.20;;;;;;;25.75;49.08;96685.31;5001631;28;20195;-61
2021/09/10 09:34:44;;;;;;;6.38;4.25;;;;;;;26.23;47.86;96689.44;5006102;28;20195;-61
2021/09/10 09:37:10;;;;;;;4.93;4.38;;;;;;;26.46;47.53;96693.34;5001440;28;20188;-61
2021/09/10 09:40:09;;;;;;;5.15;4.47;;;;;;;26.42;46.53;96689.72;5004137;28;20250;-61
2021/09/10 09:42:35;;;;;;;5.15;4.28;;;;;;;25.98;46.95;96693.84;4988924;28;20200;-61
2021/09/10 09:45:23;;;;;;;4.03;3.65;;;;;;;26.16;46.72;96689.94;5003097;28;20212;-61
2021/09/10 09:47:48;;;;;;;6.18;4.28;;;;;;;26.17;46.88;96693.41;5004507;28;20180;-61
2021/09/10 09:50:17;;;;;;;4.43;4.03;;;;;;;26.24;46.44;96693.69;5004014;28;20220;-62
2021/09/10 09:52:44;;;;;;;4.53;4.13;;;;;;;26.40;46.28;96691.97;5003166;28;20184;-61
2021/09/10 09:55:12;;;;;;;4.68;4.15;;;;;;;26.38;45.74;96694.97;5006258;28;20187;-61
2021/09/10 09:57:39;;;;;;;5.50;4.22;;;;;;;26.33;46.31;96700.56;4999744;28;20192;-61
2021/09/10 10:00:07;;;;;;;5.00;4.13;;;;;;;26.50;45.96;96699.63;5008697;28;20183;-60
2021/09/10 10:02:36;;;;;;;4.65;4.25;;;;;;;26.26;46.36;96692.22;4998547;28;20191;-61
2021/09/10 10:05:01;;;;;;;8.00;4.78;;;;;;;26.50;45.94;96688.88;5007488;28;20184;-61
2021/09/10 10:07:38;;;;;;;4.55;4.10;;;;;;;26.60;45.57;96699.19;5003940;28;20263;-60
2021/09/10 10:10:06;;;;;;;4.97;4.55;;;;;;;26.31;46.27;96697.41;5008947;28;20199;-60
2021/09/10 10:12:32;;;;;;;5.93;4.50;;;;;;;26.19;46.85;96691.19;5005555;28;20192;-61
2021/09/10 10:15:18;;;;;;;4.50;4.10;;;;;;;26.29;46.41;96688.91;5006376;28;20283;-61
2021/09/10 10:17:44;;;;;;;4.80;4.40;;;;;;;26.23;46.30;96687.53;5002067;28;20265;-61
2021/09/10 10:20:14;;;;;;;5.13;4.53;;;;;;;26.34;46.30;96690.59;5008307;28;20224;-61
2021/09/10 10:22:40;;;;;;;7.63;4.15;;;;;;;25.97;46.87;96695.75;5005536;28;20636;-61
2021/09/10 10:25:08;;;;;;;4.70;4.30;;;;;;;26.01;46.98;96696.69;5010951;28;20199;-61
2021/09/10 10:27:38;;;;;;;4.72;4.22;;;;;;;26.03;46.87;96689.06;4999862;28;20179;-61
2021/09/10 10:30:17;;;;;;;4.82;4.20;;;;;;;26.38;46.60;96688.81;5005610;28;20273;-61
2021/09/10 10:32:47;;;;;;;4.57;4.18;;;;;;;26.52;46.05;96688.53;5000212;28;20187;-61
2021/09/10 10:35:23;;;;;;;6.70;4.78;;;;;;;26.53;45.75;96682.81;5010512;28;20580;-61
2021/09/10 10:37:51;;;;;;;6.63;4.65;;;;;;;26.57;46.14;96686.44;4995462;28;20582;-61
2021/09/10 10:40:27;;;;;;;5.50;4.13;;;;;;;26.59;46.15;96683.38;5000726;28;20238;-61
2021/09/10 10:42:53;;;;;;;5.13;4.63;;;;;;;26.68;46.42;96681.41;5002457;28;20275;-61
2021/09/10 10:45:40;;;;;;;5.07;4.57;;;;;;;26.43;46.37;96681.34;5002370;28;20207;-61
2021/09/10 10:48:29;;;;;;;5.10;4.70;;;;;;;26.60;45.73;96677.69;5006816;28;20252;-61
2021/09/10 10:51:03;;;;;;;5.68;4.75;;;;;;;26.68;45.48;96670.66;4986989;28;20687;-60
2021/09/10 10:53:47;;;;;;;5.30;4.80;;;;;;;26.97;45.57;96670.53;5003608;28;20179;-61
2021/09/10 10:56:21;;;;;;;4.93;4.53;;;;;;;27.03;44.44;96669.16;5002603;28;20546;-61
2021/09/10 10:59:17;;;;;;;4.55;4.15;;;;;;;26.51;44.62;96665.47;5003737;28;20186;-61
2021/09/10 11:02:20;;;;;;;7.32;4.45;;;;;;;26.54;44.98;96657.50;5004232;28;20199;-61
2021/09/10 11:05:13;;;;;;;6.18;4.07;;;;;;;26.47;45.44;96659.97;5001763;28;20176;-60
2021/09/10 11:07:39;;;;;;;4.97;4.43;;;;;;;26.51;45.86;96662.78;4999919;28;20204;-61
2021/09/10 11:10:15;;;;;;;4.00;3.70;;;;;;;26.26;44.52;96659.19;5007227;28;20214;-60
2021/09/10 11:12:43;;;;;;;4.70;4.05;;;;;;;26.11;45.91;96665.94;5009470;28;20237;-61
2021/09/10 11:15:16;;;;;;;6.07;4.05;;;;;;;26.21;45.99;96657.47;4994274;28;20184;-60
2021/09/10 11:17:42;;;;;;;4.60;4.20;;;;;;;26.39;45.42;96660.81;5004608;28;20191;-60
2021/09/10 11:20:08;;;;;;;6.20;4.20;;;;;;;26.52;45.29;96656.28;5010889;28;20187;-60
2021/09/10 11:22:46;;;;;;;4.50;4.10;;;;;;;26.61;45.03;96656.97;4996983;28;20191;-61
2021/09/10 11:25:12;;;;;;;4.80;4.40;;;;;;;26.36;46.09;96662.25;5006753;28;20180;-61
2021/09/10 11:27:40;;;;;;;6.63;4.03;;;;;;;26.60;45.50;96660.75;5002780;28;20340;-61
2021/09/10 11:30:11;;;;;;;4.70;3.97;;;;;;;26.54;45.80;96662.09;5005351;28;20214;-64
2021/09/10 11:32:37;;;;;;;4.20;3.80;;;;;;;26.39;45.91;96660.81;5012776;28;20563;-61
2021/09/10 11:35:18;;;;;;;4.35;3.95;;;;;;;26.64;45.30;96656.31;5004843;28;20195;-61